sensor_id;sensor_type;location;lat;lon;timestamp;pressure;altitude;pressure_sealevel;temperature;humidity
76592;BME280;65481;47.600;19.682;2022-12-29T00:04:22;100992.84;;;-0.62;100.00
76592;BME280;65481;47.600;19.682;2022-12-29T00:09:22;100998.44;;;-0.56;100.00
76592;BME280;65481;47.600;19.682;2022-12-29T00:14:23;100996.53;;;-0.54;100.00
76592;BME280;65481;47.600;19.682;2022-12-29T00:19:42;100992.31;;;-0.65;100.00
76592;BME280;65481;47.600;19.682;2022-12-29T00:25:02;100991.22;;;-0.82;100.00
76592;BME280;65481;47.600;19.682;2022-12-29T00:30:14;100989.56;;;-0.83;100.00
76592;BME280;65481;47.600;19.682;2022-12-29T00:35:42;100999.94;;;-0.73;100.00
76592;BME280;65481;47.600;19.682;2022-12-29T00:40:44;100996.94;;;-0.69;100.00
76592;BME280;65481;47.600;19.682;2022-12-29T00:46:03;100996.09;;;-0.69;100.00
76592;BME280;65481;47.600;19.682;2022-12-29T00:51:04;100994.34;;;-0.69;100.00
76592;BME280;65481;47.600;19.682;2022-12-29T00:56:04;100999.13;;;-0.64;100.00
76592;BME280;65481;47.600;19.682;2022-12-29T01:01:07;100986.16;;;-0.64;100.00
76592;BME280;65481;47.600;19.682;2022-12-29T01:06:09;100998.69;;;-0.69;100.00
76592;BME280;65481;47.600;19.682;2022-12-29T01:11:12;100997.91;;;-0.70;100.00
76592;BME280;65481;47.600;19.682;2022-12-29T01:16:13;100995.28;;;-0.80;100.00
76592;BME280;65481;47.600;19.682;2022-12-29T01:21:13;100995.00;;;-0.96;100.00
76592;BME280;65481;47.600;19.682;2022-12-29T01:26:16;100998.66;;;-0.89;100.00
76592;BME280;65481;47.600;19.682;2022-12-29T01:31:16;100995.97;;;-0.87;100.00
76592;BME280;65481;47.600;19.682;2022-12-29T01:36:17;100987.22;;;-0.96;100.00
76592;BME280;65481;47.600;19.682;2022-12-29T01:41:19;100988.72;;;-0.94;100.00
76592;BME280;65481;47.600;19.682;2022-12-29T01:46:38;100985.44;;;-0.96;100.00
76592;BME280;65481;47.600;19.682;2022-12-29T01:52:06;100981.47;;;-1.00;100.00
76592;BME280;65481;47.600;19.682;2022-12-29T01:57:12;100979.69;;;-0.99;100.00
76592;BME280;65481;47.600;19.682;2022-12-29T02:02:14;100968.50;;;-1.00;100.00
76592;BME280;65481;47.600;19.682;2022-12-29T02:07:18;100966.06;;;-1.01;100.00
76592;BME280;65481;47.600;19.682;2022-12-29T02:12:21;100950.66;;;-1.03;100.00
76592;BME280;65481;47.600;19.682;2022-12-29T02:22:55;100955.69;;;-1.01;100.00
76592;BME280;65481;47.600;19.682;2022-12-29T02:28:31;100951.63;;;-1.04;100.00
76592;BME280;65481;47.600;19.682;2022-12-29T02:38:56;100965.34;;;-1.13;100.00
76592;BME280;65481;47.600;19.682;2022-12-29T02:54:28;100947.09;;;-1.22;100.00
76592;BME280;65481;47.600;19.682;2022-12-29T02:59:45;100953.75;;;-1.19;100.00
76592;BME280;65481;47.600;19.682;2022-12-29T03:05:19;100952.94;;;-1.19;100.00
76592;BME280;65481;47.600;19.682;2022-12-29T03:15:53;100946.50;;;-1.25;100.00
76592;BME280;65481;47.600;19.682;2022-12-29T03:21:10;100944.34;;;-1.20;100.00
76592;BME280;65481;47.600;19.682;2022-12-29T03:26:14;100939.31;;;-1.22;100.00
76592;BME280;65481;47.600;19.682;2022-12-29T03:31:17;100927.44;;;-1.24;100.00
76592;BME280;65481;47.600;19.682;2022-12-29T03:36:27;100928.25;;;-1.24;100.00
76592;BME280;65481;47.600;19.682;2022-12-29T03:41:31;100929.59;;;-1.39;100.00
76592;BME280;65481;47.600;19.682;2022-12-29T03:46:33;100922.63;;;-1.39;100.00
76592;BME280;65481;47.600;19.682;2022-12-29T03:51:34;100912.16;;;-1.37;100.00
76592;BME280;65481;47.600;19.682;2022-12-29T03:56:34;100910.41;;;-1.27;100.00
76592;BME280;65481;47.600;19.682;2022-12-29T04:01:35;100908.75;;;-1.28;100.00
76592;BME280;65481;47.600;19.682;2022-12-29T04:06:35;100922.41;;;-1.26;100.00
76592;BME280;65481;47.600;19.682;2022-12-29T04:11:36;100922.13;;;-1.23;100.00
76592;BME280;65481;47.600;19.682;2022-12-29T04:16:36;100912.28;;;-1.29;100.00
76592;BME280;65481;47.600;19.682;2022-12-29T04:21:39;100922.78;;;-1.30;100.00
76592;BME280;65481;47.600;19.682;2022-12-29T04:26:40;100910.94;;;-1.23;100.00
76592;BME280;65481;47.600;19.682;2022-12-29T04:31:40;100913.13;;;-1.28;100.00
76592;BME280;65481;47.600;19.682;2022-12-29T04:36:41;100901.91;;;-1.39;100.00
76592;BME280;65481;47.600;19.682;2022-12-29T04:41:41;100899.72;;;-1.43;100.00
76592;BME280;65481;47.600;19.682;2022-12-29T04:46:42;100916.34;;;-1.36;100.00
76592;BME280;65481;47.600;19.682;2022-12-29T04:51:42;100917.88;;;-1.33;100.00
76592;BME280;65481;47.600;19.682;2022-12-29T04:56:43;100907.94;;;-1.38;100.00
76592;BME280;65481;47.600;19.682;2022-12-29T05:01:43;100899.19;;;-1.47;100.00
76592;BME280;65481;47.600;19.682;2022-12-29T05:06:44;100910.59;;;-1.49;100.00
76592;BME280;65481;47.600;19.682;2022-12-29T05:11:44;100914.72;;;-1.47;100.00
76592;BME280;65481;47.600;19.682;2022-12-29T05:16:45;100902.72;;;-1.48;100.00
76592;BME280;65481;47.600;19.682;2022-12-29T05:21:45;100902.16;;;-1.52;100.00
76592;BME280;65481;47.600;19.682;2022-12-29T05:26:46;100892.06;;;-1.45;100.00
76592;BME280;65481;47.600;19.682;2022-12-29T05:31:46;100905.97;;;-1.46;100.00
76592;BME280;65481;47.600;19.682;2022-12-29T05:36:47;100913.63;;;-1.44;100.00
76592;BME280;65481;47.600;19.682;2022-12-29T05:41:47;100897.81;;;-1.51;100.00
76592;BME280;65481;47.600;19.682;2022-12-29T05:46:48;100905.72;;;-1.43;100.00
76592;BME280;65481;47.600;19.682;2022-12-29T05:51:48;100894.56;;;-1.43;100.00
76592;BME280;65481;47.600;19.682;2022-12-29T05:56:49;100878.19;;;-1.44;100.00
76592;BME280;65481;47.600;19.682;2022-12-29T06:01:50;100877.22;;;-1.53;100.00
76592;BME280;65481;47.600;19.682;2022-12-29T06:06:50;100873.69;;;-1.52;100.00
76592;BME280;65481;47.600;19.682;2022-12-29T06:11:51;100889.88;;;-1.59;100.00
76592;BME280;65481;47.600;19.682;2022-12-29T06:16:51;100901.88;;;-1.48;100.00
76592;BME280;65481;47.600;19.682;2022-12-29T06:21:54;100899.59;;;-1.42;100.00
76592;BME280;65481;47.600;19.682;2022-12-29T06:26:56;100897.97;;;-1.33;100.00
76592;BME280;65481;47.600;19.682;2022-12-29T06:31:58;100904.97;;;-1.24;100.00
76592;BME280;65481;47.600;19.682;2022-12-29T06:36:59;100902.47;;;-1.25;100.00
76592;BME280;65481;47.600;19.682;2022-12-29T06:42:01;100905.47;;;-1.30;100.00
76592;BME280;65481;47.600;19.682;2022-12-29T06:47:02;100910.38;;;-1.37;100.00
76592;BME280;65481;47.600;19.682;2022-12-29T06:52:04;100899.03;;;-1.45;100.00
76592;BME280;65481;47.600;19.682;2022-12-29T06:57:05;100890.19;;;-1.33;100.00
76592;BME280;65481;47.600;19.682;2022-12-29T07:02:06;100892.94;;;-1.34;100.00
76592;BME280;65481;47.600;19.682;2022-12-29T07:07:07;100894.16;;;-1.29;100.00
76592;BME280;65481;47.600;19.682;2022-12-29T07:12:08;100898.81;;;-1.23;100.00
76592;BME280;65481;47.600;19.682;2022-12-29T07:17:09;100913.44;;;-1.02;100.00
76592;BME280;65481;47.600;19.682;2022-12-29T07:22:10;100901.03;;;-0.69;100.00
76592;BME280;65481;47.600;19.682;2022-12-29T07:27:10;100901.59;;;-0.65;100.00
76592;BME280;65481;47.600;19.682;2022-12-29T07:32:11;100905.66;;;-0.72;100.00
76592;BME280;65481;47.600;19.682;2022-12-29T07:37:11;100908.00;;;-0.79;100.00
76592;BME280;65481;47.600;19.682;2022-12-29T07:42:12;100906.75;;;-0.65;100.00
76592;BME280;65481;47.600;19.682;2022-12-29T07:47:13;100910.72;;;-0.41;100.00
76592;BME280;65481;47.600;19.682;2022-12-29T07:52:14;100909.53;;;0.01;100.00
76592;BME280;65481;47.600;19.682;2022-12-29T07:57:15;100921.09;;;0.72;100.00
76592;BME280;65481;47.600;19.682;2022-12-29T08:02:16;100925.09;;;1.12;100.00
76592;BME280;65481;47.600;19.682;2022-12-29T08:07:17;100920.88;;;1.56;100.00
76592;BME280;65481;47.600;19.682;2022-12-29T08:12:17;100928.88;;;1.80;100.00
76592;BME280;65481;47.600;19.682;2022-12-29T08:17:18;100926.22;;;2.25;100.00
76592;BME280;65481;47.600;19.682;2022-12-29T08:22:19;100936.69;;;2.84;99.59
76592;BME280;65481;47.600;19.682;2022-12-29T08:27:19;100929.25;;;3.39;94.72
76592;BME280;65481;47.600;19.682;2022-12-29T08:32:20;100928.22;;;3.90;90.45
76592;BME280;65481;47.600;19.682;2022-12-29T08:37:20;100922.91;;;4.31;83.65
76592;BME280;65481;47.600;19.682;2022-12-29T08:42:22;100924.84;;;3.56;87.57
76592;BME280;65481;47.600;19.682;2022-12-29T08:47:23;100914.44;;;2.55;90.97
76592;BME280;65481;47.600;19.682;2022-12-29T08:52:23;100904.97;;;1.85;94.76
76592;BME280;65481;47.600;19.682;2022-12-29T08:57:25;100911.09;;;1.31;98.39
76592;BME280;65481;47.600;19.682;2022-12-29T09:02:26;100900.28;;;1.18;100.00
76592;BME280;65481;47.600;19.682;2022-12-29T09:07:27;100904.78;;;1.16;100.00
76592;BME280;65481;47.600;19.682;2022-12-29T09:12:27;100899.91;;;0.95;100.00
76592;BME280;65481;47.600;19.682;2022-12-29T09:17:28;100881.06;;;0.65;100.00
76592;BME280;65481;47.600;19.682;2022-12-29T09:22:47;100866.47;;;0.64;100.00
76592;BME280;65481;47.600;19.682;2022-12-29T09:27:48;100874.44;;;0.80;100.00
76592;BME280;65481;47.600;19.682;2022-12-29T09:32:49;100880.06;;;0.94;100.00
76592;BME280;65481;47.600;19.682;2022-12-29T09:37:50;100868.41;;;0.80;100.00
76592;BME280;65481;47.600;19.682;2022-12-29T09:48:14;100859.06;;;0.87;100.00
76592;BME280;65481;47.600;19.682;2022-12-29T09:58:32;100836.84;;;0.74;100.00
76592;BME280;65481;47.600;19.682;2022-12-29T10:03:46;100832.56;;;0.65;100.00
76592;BME280;65481;47.600;19.682;2022-12-29T10:08:57;100823.47;;;0.51;100.00
76592;BME280;65481;47.600;19.682;2022-12-29T10:14:17;100822.78;;;0.77;100.00
76592;BME280;65481;47.600;19.682;2022-12-29T10:24:37;100835.19;;;1.28;100.00
76592;BME280;65481;47.600;19.682;2022-12-29T10:29:49;100837.59;;;1.03;100.00
76592;BME280;65481;47.600;19.682;2022-12-29T10:34:55;100826.31;;;0.76;100.00
76592;BME280;65481;47.600;19.682;2022-12-29T10:39:59;100815.66;;;0.79;100.00
76592;BME280;65481;47.600;19.682;2022-12-29T10:45:00;100802.78;;;0.78;100.00
76592;BME280;65481;47.600;19.682;2022-12-29T10:50:02;100794.91;;;0.87;100.00
76592;BME280;65481;47.600;19.682;2022-12-29T10:55:10;100787.34;;;0.94;100.00
76592;BME280;65481;47.600;19.682;2022-12-29T11:00:16;100782.88;;;1.04;100.00
76592;BME280;65481;47.600;19.682;2022-12-29T11:05:37;100788.66;;;1.16;100.00
76592;BME280;65481;47.600;19.682;2022-12-29T11:10:43;100791.00;;;1.28;100.00
76592;BME280;65481;47.600;19.682;2022-12-29T11:15:47;100786.59;;;1.28;100.00
76592;BME280;65481;47.600;19.682;2022-12-29T11:20:57;100796.66;;;1.49;100.00
76592;BME280;65481;47.600;19.682;2022-12-29T11:31:17;100780.75;;;1.53;100.00
76592;BME280;65481;47.600;19.682;2022-12-29T11:36:21;100788.19;;;1.47;100.00
76592;BME280;65481;47.600;19.682;2022-12-29T11:41:33;100772.38;;;1.41;100.00
76592;BME280;65481;47.600;19.682;2022-12-29T11:46:36;100777.41;;;1.34;100.00
76592;BME280;65481;47.600;19.682;2022-12-29T11:51:42;100774.69;;;1.44;100.00
76592;BME280;65481;47.600;19.682;2022-12-29T11:56:44;100768.19;;;1.48;100.00
76592;BME280;65481;47.600;19.682;2022-12-29T12:01:46;100765.47;;;1.58;100.00
76592;BME280;65481;47.600;19.682;2022-12-29T12:07:05;100772.25;;;1.77;100.00
76592;BME280;65481;47.600;19.682;2022-12-29T12:12:24;100767.69;;;1.79;100.00
76592;BME280;65481;47.600;19.682;2022-12-29T12:17:37;100749.22;;;1.99;100.00
76592;BME280;65481;47.600;19.682;2022-12-29T12:28:01;100744.78;;;3.56;100.00
76592;BME280;65481;47.600;19.682;2022-12-29T12:43:39;100712.25;;;3.36;100.00
76592;BME280;65481;47.600;19.682;2022-12-29T13:09:58;100725.69;;;3.64;100.00
76592;BME280;65481;47.600;19.682;2022-12-29T13:20:44;100703.78;;;3.33;100.00
76592;BME280;65481;47.600;19.682;2022-12-29T13:25:52;100700.53;;;3.31;100.00
76592;BME280;65481;47.600;19.682;2022-12-29T13:31:07;100703.00;;;3.16;100.00
76592;BME280;65481;47.600;19.682;2022-12-29T13:36:48;100715.56;;;3.13;100.00
76592;BME280;65481;47.600;19.682;2022-12-29T13:41:54;100726.50;;;3.00;100.00
76592;BME280;65481;47.600;19.682;2022-12-29T13:46:56;100732.88;;;2.97;100.00
76592;BME280;65481;47.600;19.682;2022-12-29T13:52:08;100729.28;;;2.90;100.00
76592;BME280;65481;47.600;19.682;2022-12-29T13:57:39;100723.13;;;2.75;100.00
76592;BME280;65481;47.600;19.682;2022-12-29T14:07:47;100721.31;;;2.67;100.00
76592;BME280;65481;47.600;19.682;2022-12-29T14:12:49;100725.06;;;2.56;100.00
76592;BME280;65481;47.600;19.682;2022-12-29T14:18:03;100735.81;;;2.53;100.00
76592;BME280;65481;47.600;19.682;2022-12-29T14:28:23;100725.69;;;2.25;100.00
76592;BME280;65481;47.600;19.682;2022-12-29T14:33:27;100734.13;;;2.19;100.00
76592;BME280;65481;47.600;19.682;2022-12-29T14:38:29;100736.22;;;2.07;100.00
76592;BME280;65481;47.600;19.682;2022-12-29T14:43:30;100730.50;;;1.95;100.00
76592;BME280;65481;47.600;19.682;2022-12-29T14:48:38;100739.09;;;1.79;100.00
76592;BME280;65481;47.600;19.682;2022-12-29T15:03:49;100728.50;;;1.38;100.00
76592;BME280;65481;47.600;19.682;2022-12-29T15:08:54;100727.94;;;1.26;100.00
76592;BME280;65481;47.600;19.682;2022-12-29T15:13:59;100727.25;;;1.24;100.00
76592;BME280;65481;47.600;19.682;2022-12-29T15:19:00;100736.50;;;1.18;100.00
76592;BME280;65481;47.600;19.682;2022-12-29T15:24:02;100735.47;;;1.11;100.00
76592;BME280;65481;47.600;19.682;2022-12-29T15:29:03;100753.31;;;1.05;100.00
76592;BME280;65481;47.600;19.682;2022-12-29T15:34:11;100756.53;;;0.99;100.00
76592;BME280;65481;47.600;19.682;2022-12-29T15:39:20;100744.94;;;0.94;100.00
76592;BME280;65481;47.600;19.682;2022-12-29T15:44:24;100744.75;;;0.87;100.00
76592;BME280;65481;47.600;19.682;2022-12-29T15:49:26;100730.41;;;0.83;100.00
76592;BME280;65481;47.600;19.682;2022-12-29T15:54:31;100726.47;;;0.79;100.00
76592;BME280;65481;47.600;19.682;2022-12-29T15:59:33;100726.78;;;0.75;100.00
76592;BME280;65481;47.600;19.682;2022-12-29T16:04:34;100727.63;;;0.76;100.00
76592;BME280;65481;47.600;19.682;2022-12-29T16:09:42;100737.50;;;0.72;100.00
76592;BME280;65481;47.600;19.682;2022-12-29T16:14:48;100742.69;;;0.72;100.00
76592;BME280;65481;47.600;19.682;2022-12-29T16:19:58;100736.16;;;0.68;100.00
76592;BME280;65481;47.600;19.682;2022-12-29T16:25:29;100727.19;;;0.63;100.00
76592;BME280;65481;47.600;19.682;2022-12-29T16:30:32;100717.91;;;0.60;100.00
76592;BME280;65481;47.600;19.682;2022-12-29T16:40:57;100735.06;;;0.53;100.00
76592;BME280;65481;47.600;19.682;2022-12-29T16:51:21;100721.69;;;0.29;100.00
76592;BME280;65481;47.600;19.682;2022-12-29T16:56:25;100740.19;;;0.26;100.00
76592;BME280;65481;47.600;19.682;2022-12-29T17:01:27;100736.16;;;0.32;100.00
76592;BME280;65481;47.600;19.682;2022-12-29T17:06:30;100732.06;;;0.29;100.00
76592;BME280;65481;47.600;19.682;2022-12-29T17:11:32;100736.59;;;0.27;100.00
76592;BME280;65481;47.600;19.682;2022-12-29T17:16:52;100733.69;;;0.12;100.00
76592;BME280;65481;47.600;19.682;2022-12-29T17:21:52;100729.81;;;-0.02;100.00
76592;BME280;65481;47.600;19.682;2022-12-29T17:26:58;100745.94;;;-0.08;100.00
76592;BME280;65481;47.600;19.682;2022-12-29T17:32:01;100738.75;;;-0.14;100.00
76592;BME280;65481;47.600;19.682;2022-12-29T17:37:02;100747.41;;;-0.23;100.00
76592;BME280;65481;47.600;19.682;2022-12-29T17:42:03;100736.47;;;-0.17;100.00
76592;BME280;65481;47.600;19.682;2022-12-29T17:47:04;100745.09;;;-0.26;100.00
76592;BME280;65481;47.600;19.682;2022-12-29T17:52:04;100741.41;;;-0.24;100.00
76592;BME280;65481;47.600;19.682;2022-12-29T17:57:05;100755.09;;;-0.32;100.00
76592;BME280;65481;47.600;19.682;2022-12-29T18:02:21;100736.53;;;-0.37;100.00
76592;BME280;65481;47.600;19.682;2022-12-29T18:07:26;100726.06;;;-0.45;100.00
76592;BME280;65481;47.600;19.682;2022-12-29T18:17:30;100724.97;;;-0.42;100.00
76592;BME280;65481;47.600;19.682;2022-12-29T18:22:31;100724.47;;;-0.46;100.00
76592;BME280;65481;47.600;19.682;2022-12-29T18:27:32;100715.88;;;-0.56;100.00
76592;BME280;65481;47.600;19.682;2022-12-29T18:32:32;100712.22;;;-0.64;100.00
76592;BME280;65481;47.600;19.682;2022-12-29T18:37:33;100701.72;;;-0.62;100.00
76592;BME280;65481;47.600;19.682;2022-12-29T18:42:34;100698.22;;;-0.71;100.00
76592;BME280;65481;47.600;19.682;2022-12-29T18:47:35;100708.16;;;-0.66;100.00
76592;BME280;65481;47.600;19.682;2022-12-29T18:52:36;100701.22;;;-0.75;100.00
76592;BME280;65481;47.600;19.682;2022-12-29T18:57:37;100696.09;;;-0.85;100.00
76592;BME280;65481;47.600;19.682;2022-12-29T19:02:37;100705.09;;;-0.89;100.00
76592;BME280;65481;47.600;19.682;2022-12-29T19:07:38;100699.50;;;-0.95;100.00
76592;BME280;65481;47.600;19.682;2022-12-29T19:12:40;100701.97;;;-0.93;100.00
76592;BME280;65481;47.600;19.682;2022-12-29T19:17:41;100691.03;;;-0.97;100.00
76592;BME280;65481;47.600;19.682;2022-12-29T19:22:42;100702.34;;;-0.88;100.00
76592;BME280;65481;47.600;19.682;2022-12-29T19:27:43;100694.59;;;-0.98;100.00
76592;BME280;65481;47.600;19.682;2022-12-29T19:32:47;100696.50;;;-1.00;100.00
76592;BME280;65481;47.600;19.682;2022-12-29T19:37:49;100691.50;;;-1.11;100.00
76592;BME280;65481;47.600;19.682;2022-12-29T19:42:50;100681.97;;;-1.11;100.00
76592;BME280;65481;47.600;19.682;2022-12-29T19:47:52;100675.97;;;-1.21;100.00
76592;BME280;65481;47.600;19.682;2022-12-29T19:52:53;100681.16;;;-1.21;100.00
76592;BME280;65481;47.600;19.682;2022-12-29T19:57:55;100683.91;;;-1.23;100.00
76592;BME280;65481;47.600;19.682;2022-12-29T20:02:55;100688.13;;;-1.22;100.00
76592;BME280;65481;47.600;19.682;2022-12-29T20:07:57;100685.66;;;-1.33;100.00
76592;BME280;65481;47.600;19.682;2022-12-29T20:12:57;100671.78;;;-1.42;100.00
76592;BME280;65481;47.600;19.682;2022-12-29T20:17:58;100667.56;;;-1.43;100.00
76592;BME280;65481;47.600;19.682;2022-12-29T20:22:59;100663.03;;;-1.31;100.00
76592;BME280;65481;47.600;19.682;2022-12-29T20:27:59;100655.25;;;-1.21;100.00
76592;BME280;65481;47.600;19.682;2022-12-29T20:33:00;100661.00;;;-1.27;100.00
76592;BME280;65481;47.600;19.682;2022-12-29T20:38:00;100664.28;;;-1.35;100.00
76592;BME280;65481;47.600;19.682;2022-12-29T20:43:01;100664.84;;;-1.41;100.00
76592;BME280;65481;47.600;19.682;2022-12-29T20:48:01;100665.13;;;-1.44;100.00
76592;BME280;65481;47.600;19.682;2022-12-29T20:53:02;100664.59;;;-1.48;100.00
76592;BME280;65481;47.600;19.682;2022-12-29T20:58:03;100662.66;;;-1.46;100.00
76592;BME280;65481;47.600;19.682;2022-12-29T21:03:03;100681.19;;;-1.50;100.00
76592;BME280;65481;47.600;19.682;2022-12-29T21:08:04;100681.75;;;-1.57;100.00
76592;BME280;65481;47.600;19.682;2022-12-29T21:13:05;100671.94;;;-1.53;100.00
76592;BME280;65481;47.600;19.682;2022-12-29T21:18:05;100676.41;;;-1.45;100.00
76592;BME280;65481;47.600;19.682;2022-12-29T21:23:06;100682.28;;;-1.43;100.00
76592;BME280;65481;47.600;19.682;2022-12-29T21:28:08;100677.53;;;-1.48;100.00
76592;BME280;65481;47.600;19.682;2022-12-29T21:33:12;100688.25;;;-1.43;100.00
76592;BME280;65481;47.600;19.682;2022-12-29T21:38:13;100682.13;;;-1.42;100.00
76592;BME280;65481;47.600;19.682;2022-12-29T21:43:14;100692.09;;;-1.37;100.00
76592;BME280;65481;47.600;19.682;2022-12-29T21:48:14;100678.84;;;-1.34;100.00
76592;BME280;65481;47.600;19.682;2022-12-29T21:53:22;100677.50;;;-1.28;100.00
76592;BME280;65481;47.600;19.682;2022-12-29T21:58:38;100686.06;;;-1.28;100.00
76592;BME280;65481;47.600;19.682;2022-12-29T22:03:57;100684.69;;;-1.22;100.00
76592;BME280;65481;47.600;19.682;2022-12-29T22:09:16;100676.13;;;-1.23;100.00
76592;BME280;65481;47.600;19.682;2022-12-29T22:14:36;100663.16;;;-1.13;100.00
76592;BME280;65481;47.600;19.682;2022-12-29T22:19:36;100671.97;;;-1.05;100.00
76592;BME280;65481;47.600;19.682;2022-12-29T22:24:37;100665.28;;;-0.98;100.00
76592;BME280;65481;47.600;19.682;2022-12-29T22:29:37;100663.47;;;-0.88;100.00
76592;BME280;65481;47.600;19.682;2022-12-29T22:34:40;100664.16;;;-0.86;100.00
76592;BME280;65481;47.600;19.682;2022-12-29T22:39:40;100660.81;;;-0.68;100.00
76592;BME280;65481;47.600;19.682;2022-12-29T22:44:41;100661.88;;;-0.61;100.00
76592;BME280;65481;47.600;19.682;2022-12-29T22:49:43;100663.25;;;-0.57;100.00
76592;BME280;65481;47.600;19.682;2022-12-29T22:54:43;100674.94;;;-0.53;100.00
76592;BME280;65481;47.600;19.682;2022-12-29T22:59:44;100673.97;;;-0.52;100.00
76592;BME280;65481;47.600;19.682;2022-12-29T23:04:44;100653.38;;;-0.53;100.00
76592;BME280;65481;47.600;19.682;2022-12-29T23:09:45;100659.53;;;-0.54;100.00
76592;BME280;65481;47.600;19.682;2022-12-29T23:14:46;100649.91;;;-0.44;100.00
76592;BME280;65481;47.600;19.682;2022-12-29T23:19:47;100643.53;;;-0.50;100.00
76592;BME280;65481;47.600;19.682;2022-12-29T23:24:47;100646.41;;;-0.53;100.00
76592;BME280;65481;47.600;19.682;2022-12-29T23:29:48;100642.34;;;-0.55;100.00
76592;BME280;65481;47.600;19.682;2022-12-29T23:34:49;100636.59;;;-0.49;100.00
76592;BME280;65481;47.600;19.682;2022-12-29T23:39:50;100636.94;;;-0.44;100.00
76592;BME280;65481;47.600;19.682;2022-12-29T23:44:50;100649.00;;;-0.53;100.00
76592;BME280;65481;47.600;19.682;2022-12-29T23:49:51;100641.66;;;-0.57;100.00
76592;BME280;65481;47.600;19.682;2022-12-29T23:54:51;100626.13;;;-0.57;100.00
76592;BME280;65481;47.600;19.682;2022-12-29T23:59:52;100628.09;;;-0.41;100.00
